Denton, GA (31532)

8:37 AM EST on December 28, 2014 (GMT -0500)
Hazlehurst | Change Station
CLOSE
Current Station
Airport
Location: Hazlehurst,
Elevation: 256 ft
Nearby Weather Stations
Active Advisory: Dense Fog Advisory

Elev 256 ft 31.88 °N, 82.65 °W | Updated 22 minutes ago

Fog
Fog
58 °F
Feels Like 58 °F
N
5
Wind Variable Wind from South

Today
High -- | Low -- °F
--% Chance of Precip.
Yesterday
High -- | Low -- °F
Precip. -- in
7:29 AM 5:35 PM
Waxing Crescent, 48% visible
Pressure 30.12 in
Visibility 3.0 miles
Clouds Mostly Cloudy 300 ft
Mostly Cloudy 700 ft
Dew Point 58 °F
Humidity 100%
Rainfall 0.00 in
Snow Depth Not available.
UV 0 out of 12
Pollen 1.40 out of 12
Air Quality Not available.
Flu Activity Not available.
METAR KAZE 281315Z AUTO 17004KT 3SM BR BKN003 BKN007 15/15 A3012 RMK AO2 T01470147

More Conditions Fewer Conditions

Pressure 30.12 in
Visibility 3.0 miles
Clouds Mostly Cloudy 300 ft
Mostly Cloudy 700 ft
Dew Point 58 °F
Humidity 100%
Rainfall 0.00 in
Snow Depth Not available.
UV 0 out of 12
Pollen 1.40 out of 12
Air Quality Not available.
Flu Activity Not available.
METAR KAZE 281315Z AUTO 17004KT 3SM BR BKN003 BKN007 15/15 A3012 RMK AO2 T01470147

More Conditions Fewer Conditions

10-Day Weather Forecast

Almanac

Astronomy

Dec. 28, 2014 Rise Set
Actual Time
Civil Twilight
Nautical Twilight
Astronomical Twilight
Moon
Length of Visible Light
Length of Day
Tomorrow will be .
, % of the Moon is Illuminated

Today's Extremes

State Highs State Lows

Community

WunderPhotos

Upload Photos

1,781,263 photos uploaded!

WunderBlogs® & News

Nearby

Air Quality

  Air Quality AQ Index Pollutant
Not available.

Snow Depth

Station Depth Elevation

Earthquake Activity

City Distance Mag. Time & Date
Minimum magnitude displayed is 2.5.

Coastal Water Temperatures

Place Temperature

Nearby Weather Stations